Date,TemperatureHighF,TemperatureAvgF,TemperatureLowF,DewpointHighF,DewpointAvgF,DewpointLowF,HumidityHigh,HumidityAvg,HumidityLow,PressureMaxIn,PressureMinIn,WindSpeedMaxMPH,WindSpeedAvgMPH,GustSpeedMaxMPH,PrecipitationSumIn
2012-12-1,75,69,63,63,58,51,92,70,48,30.18,30.09,17,5,19,0.00
2012-12-2,82,70,65,67,62,47,96,77,31,30.21,30.12,22,7,22,0.00
2012-12-3,80,72,68,68,64,54,95,78,41,30.21,30.12,17,4,17,0.00
2012-12-4,80,70,64,66,57,31,92,68,17,30.21,30.09,19,6,19,0.00
2012-12-5,78,70,64,66,60,53,91,73,43,30.12,29.97,17,5,17,0.00
2012-12-6,80,72,67,69,63,49,96,76,36,29.97,29.85,17,6,17,0.00
2012-12-7,76,69,65,68,66,63,98,91,65,29.94,29.85,17,6,17,0.00
2012-12-8,79,71,68,71,69,64,98,91,62,29.97,29.88,12,4,13,0.00
2012-12-9,71,69,66,70,68,65,98,97,92,30.03,29.94,8,1,8,0.00
2012-12-10,80,74,65,79,73,64,98,95,82,29.97,29.77,20,4,20,0.55
2012-12-11,82,77,75,80,76,74,98,95,84,29.94,29.80,12,3,12,0.00
2012-12-12,79,76,72,78,75,72,98,95,86,30.00,29.88,15,2,15,0.12
2012-12-13,72,67,60,72,63,55,98,86,70,30.15,30.00,31,10,33,0.00
2012-12-14,69,63,59,63,59,54,98,87,60,30.15,30.03,26,12,34,0.00
2012-12-15,74,68,62,70,66,61,98,94,77,30.09,29.97,20,8,20,0.00
2012-12-16,80,73,70,72,68,53,98,85,43,30.00,29.88,20,6,20,0.00
2012-12-17,79,75,71,77,72,66,98,91,67,29.91,29.80,29,9,29,0.00
2012-12-18,77,73,66,77,64,43,98,77,41,29.97,29.80,25,7,29,0.00
2012-12-19,75,67,59,64,47,16,93,54,11,30.03,29.97,17,6,20,0.00
2012-12-20,80,74,66,77,66,48,98,78,52,30.00,29.85,45,15,45,0.47
2012-12-21,71,60,57,64,36,23,78,41,26,30.15,29.91,50,19,54,0.00
2012-12-22,59,56,54,48,30,21,74,37,26,30.24,30.15,35,10,44,0.00
2012-12-23,64,56,48,50,32,11,85,43,13,30.18,30.06,17,6,17,0.00
2012-12-24,71,66,59,67,55,36,94,69,41,30.06,29.88,31,8,31,0.00
2012-12-25,74,70,65,65,60,48,94,73,42,29.94,29.80,30,10,30,0.00
2012-12-26,78,70,59,75,64,43,96,82,54,29.94,29.74,46,17,48,0.08
2012-12-27,59,56,52,54,49,41,94,76,54,30.06,29.94,31,9,35,0.00
2012-12-28,60,54,52,56,50,40,98,87,48,30.03,29.97,17,10,17,0.00